Time;durP1;ratioP1;P1;durP2;ratioP2;P2;SDS_P1;SDS_P2;PMS_P1;PMS_P2;Temp;Humidity;BMP_temperature;BMP_pressure;BME280_temperature;BME280_humidity;BME280_pressure;Samples;Min_cycle;Max_cycle;Signal;HPM_P1;HPM_P2
2022/02/10 00:20:02;;;;;;;3.58;1.50;;;;;;;;;;5024593;28;20086;-46
2022/02/10 00:35:57;;;;;;;4.93;1.52;;;;;;;;;;5051217;28;20394;-47
2022/02/10 00:38:28;;;;;;;3.83;1.48;;;;;;;;;;5050085;28;20017;-49
2022/02/10 00:40:54;;;;;;;6.22;1.80;;;;;;;;;;5051738;28;20104;-47
2022/02/10 00:43:20;;;;;;;3.20;1.30;;;;;;;;;;5051132;28;20031;-47
2022/02/10 00:45:47;;;;;;;3.55;1.30;;;;;;;;;;5051199;28;20040;-49
2022/02/10 00:48:13;;;;;;;3.55;1.20;;;;;;;;;;5048027;28;20126;-46
2022/02/10 00:50:40;;;;;;;5.30;1.30;;;;;;;;;;5051097;28;20027;-48
2022/02/10 00:53:13;;;;;;;3.95;1.60;;;;;;;;;;5050668;28;20095;-48
2022/02/10 00:55:41;;;;;;;4.80;1.65;;;;;;;;;;5052351;28;20510;-47
2022/02/10 00:58:11;;;;;;;5.53;1.67;;;;;;;;;;5051267;28;20412;-45
2022/02/10 01:02:17;;;;;;;2.15;1.20;;;;;;;;;;5052278;28;20036;-47
2022/02/10 01:30:13;;;;;;;2.67;1.40;;;;;;;;;;5051085;28;20047;-50
2022/02/10 01:32:45;;;;;;;2.95;1.20;;;;;;;;;;5050541;28;20032;-50
2022/02/10 01:35:15;;;;;;;5.43;1.75;;;;;;;;;;5052181;28;20051;-50
2022/02/10 01:37:41;;;;;;;5.03;1.45;;;;;;;;;;5051995;28;20154;-45
2022/02/10 01:40:15;;;;;;;3.65;1.58;;;;;;;;;;5051938;28;20032;-49
2022/02/10 01:57:47;;;;;;;4.63;1.70;;;;;;;;;;5057066;28;20033;-50
2022/02/10 02:04:59;;;;;;;2.65;1.58;;;;;;;;;;5039876;28;20098;-48
2022/02/10 02:07:29;;;;;;;8.18;1.80;;;;;;;;;;5048830;28;20035;-47
2022/02/10 02:09:56;;;;;;;4.18;1.60;;;;;;;;;;5048158;28;20025;-48
2022/02/10 02:12:22;;;;;;;3.83;1.40;;;;;;;;;;5048332;28;20067;-49
2022/02/10 02:14:48;;;;;;;5.45;1.80;;;;;;;;;;5048439;28;20504;-46
2022/02/10 02:17:14;;;;;;;4.88;1.70;;;;;;;;;;5048083;28;20098;-46
2022/02/10 02:19:40;;;;;;;4.30;1.48;;;;;;;;;;5046866;28;20029;-46
2022/02/10 02:22:07;;;;;;;4.63;1.58;;;;;;;;;;5048334;28;20531;-50
2022/02/10 02:24:34;;;;;;;6.47;1.52;;;;;;;;;;5048052;28;20488;-48
2022/02/10 02:27:03;;;;;;;4.22;1.63;;;;;;;;;;5048257;28;20025;-49
2022/02/10 02:29:58;;;;;;;2.95;1.10;;;;;;;;;;5042692;28;20647;-51
2022/02/10 02:32:32;;;;;;;4.82;1.90;;;;;;;;;;5026996;28;20049;-47
2022/02/10 03:05:22;;;;;;;4.65;1.98;;;;;;;;;;5028097;28;20099;-49
2022/02/10 03:07:51;;;;;;;4.78;1.30;;;;;;;;;;5027503;28;20025;-46
2022/02/10 03:10:35;;;;;;;4.47;1.63;;;;;;;;;;5031100;28;20026;-46
2022/02/10 03:13:02;;;;;;;3.63;1.48;;;;;;;;;;5027077;28;20032;-50
2022/02/10 03:15:50;;;;;;;2.92;1.25;;;;;;;;;;5027258;28;20116;-49
2022/02/10 04:07:40;;;;;;;3.58;1.35;;;;;;;;;;5044289;28;20103;-47
2022/02/10 04:26:17;;;;;;;2.55;1.20;;;;;;;;;;5045442;28;20083;-47
2022/02/10 05:22:35;;;;;;;4.03;1.65;;;;;;;;;;5049355;28;20025;-46
2022/02/10 05:33:13;;;;;;;2.72;1.45;;;;;;;;;;5034375;28;20036;-47
2022/02/10 05:35:47;;;;;;;4.32;1.60;;;;;;;;;;5049040;28;20421;-49
2022/02/10 05:38:18;;;;;;;4.15;1.73;;;;;;;;;;5043321;28;20021;-51
2022/02/10 05:43:49;;;;;;;3.55;1.90;;;;;;;;;;5037347;28;20106;-47
2022/02/10 06:52:56;;;;;;;2.80;1.38;;;;;;;;;;5047565;28;20469;-48
2022/02/10 09:00:50;;;;;;;3.50;1.70;;;;;;;;;;5028082;28;20479;-50
2022/02/10 09:55:03;;;;;;;2.15;1.05;;;;;;;;;;5046946;28;20090;-48
2022/02/10 10:02:17;;;;;;;3.90;1.05;;;;;;;;;;5028009;28;20037;-49
2022/02/10 10:05:00;;;;;;;2.33;1.20;;;;;;;;;;5024057;28;20474;-48
2022/02/10 10:07:44;;;;;;;3.80;1.50;;;;;;;;;;5027061;28;20124;-47
2022/02/10 10:54:50;;;;;;;1.70;0.95;;;;;;;;;;5043642;28;20044;-48
2022/02/10 10:57:23;;;;;;;3.65;1.15;;;;;;;;;;5031372;28;20175;-46
2022/02/10 11:00:09;;;;;;;1.88;0.90;;;;;;;;;;5028888;28;20917;-48
2022/02/10 11:43:46;;;;;;;1.70;0.93;;;;;;;;;;5032632;28;20108;-47
2022/02/10 12:34:48;;;;;;;1.67;1.10;;;;;;;;;;5033597;28;20048;-50
2022/02/10 12:36:59;;;;;;;1.58;0.70;;;;;;;;;;5034627;28;20045;-51
2022/02/10 13:24:39;;;;;;;1.58;0.95;;;;;;;;;;5039537;28;20404;-46
2022/02/10 13:27:44;;;;;;;1.42;0.80;;;;;;;;;;5048285;28;20032;-49
2022/02/10 13:35:41;;;;;;;2.38;0.90;;;;;;;;;;5053135;28;20033;-48
2022/02/10 14:18:53;;;;;;;4.50;2.22;;;;;;;;;;5027306;28;20045;-49
2022/02/10 14:21:09;;;;;;;4.40;2.50;;;;;;;;;;5047987;28;20037;-50
2022/02/10 14:26:49;;;;;;;3.25;2.05;;;;;;;;;;5035038;28;20496;-49
2022/02/10 14:28:49;;;;;;;3.58;1.90;;;;;;;;;;5058559;28;20040;-48
2022/02/10 14:31:15;;;;;;;3.03;2.05;;;;;;;;;;5057527;28;20021;-47
2022/02/10 14:33:42;;;;;;;2.65;1.55;;;;;;;;;;5050077;28;20513;-47
2022/02/10 14:36:18;;;;;;;3.05;1.70;;;;;;;;;;5063294;28;20282;-48
2022/02/10 15:47:16;;;;;;;1.90;1.23;;;;;;;;;;5046665;28;20044;-50
2022/02/10 15:52:20;;;;;;;1.85;1.35;;;;;;;;;;5046087;28;20032;-47
2022/02/10 16:11:14;;;;;;;2.75;2.00;;;;;;;;;;5035058;28;20039;-47
2022/02/10 16:14:50;;;;;;;2.42;1.38;;;;;;;;;;5035029;28;20155;-49
2022/02/10 16:18:59;;;;;;;3.00;1.40;;;;;;;;;;5034672;28;20412;-46
2022/02/10 16:21:40;;;;;;;2.97;1.55;;;;;;;;;;5035614;28;20032;-47
2022/02/10 16:24:16;;;;;;;3.22;1.70;;;;;;;;;;5030191;28;20556;-47
2022/02/10 16:26:58;;;;;;;3.15;1.80;;;;;;;;;;5031414;28;20270;-48
2022/02/10 16:29:25;;;;;;;2.38;1.38;;;;;;;;;;5028287;28;20199;-50
2022/02/10 16:31:52;;;;;;;3.70;1.50;;;;;;;;;;5035161;28;20022;-47
2022/02/10 16:34:18;;;;;;;2.08;1.30;;;;;;;;;;5031368;28;20136;-50
2022/02/10 16:36:45;;;;;;;2.88;1.67;;;;;;;;;;5035417;28;20033;-47
2022/02/10 16:39:13;;;;;;;2.88;1.77;;;;;;;;;;5035931;28;20692;-48
2022/02/10 16:41:40;;;;;;;4.38;2.40;;;;;;;;;;5037051;28;20075;-47
2022/02/10 16:44:07;;;;;;;3.33;2.50;;;;;;;;;;5030953;28;20104;-47
2022/02/10 16:46:33;;;;;;;4.03;2.80;;;;;;;;;;5034201;28;20116;-50
2022/02/10 16:48:59;;;;;;;3.60;2.40;;;;;;;;;;5035242;28;20032;-47
2022/02/10 16:51:26;;;;;;;3.00;2.20;;;;;;;;;;5034523;28;20029;-48
2022/02/10 16:54:02;;;;;;;3.28;2.03;;;;;;;;;;5030188;28;20039;-48
2022/02/10 16:56:37;;;;;;;2.97;2.13;;;;;;;;;;5032917;28;20615;-48
2022/02/10 17:16:19;;;;;;;2.47;1.50;;;;;;;;;;5031747;28;20075;-46
2022/02/10 17:27:01;;;;;;;4.35;1.25;;;;;;;;;;5034621;28;20071;-51
2022/02/10 17:32:21;;;;;;;2.42;1.30;;;;;;;;;;5028533;28;20033;-49
2022/02/10 17:53:25;;;;;;;2.08;1.50;;;;;;;;;;5035229;28;20120;-49
2022/02/10 17:55:52;;;;;;;3.60;1.90;;;;;;;;;;5036781;28;20037;-48
2022/02/10 17:58:22;;;;;;;2.85;1.88;;;;;;;;;;5039714;28;20033;-46
2022/02/10 18:00:49;;;;;;;2.05;1.67;;;;;;;;;;5046496;28;20441;-50
2022/02/10 18:03:15;;;;;;;2.85;1.98;;;;;;;;;;5041219;28;20112;-50
2022/02/10 18:08:28;;;;;;;5.80;2.60;;;;;;;;;;5028045;28;20417;-49
2022/02/10 18:16:25;;;;;;;3.10;2.40;;;;;;;;;;5048320;28;20083;-49
2022/02/10 18:18:57;;;;;;;3.22;1.98;;;;;;;;;;5048250;28;20108;-47
2022/02/10 18:22:27;;;;;;;3.53;2.13;;;;;;;;;;5042706;28;20039;-50
2022/02/10 19:10:01;;;;;;;6.45;3.25;;;;;;;;;;5040035;28;20500;-49
2022/02/10 19:12:32;;;;;;;5.63;3.50;;;;;;;;;;5037156;28;20407;-47
2022/02/10 19:15:22;;;;;;;5.47;4.05;;;;;;;;;;5042007;28;20060;-50
2022/02/10 19:17:45;;;;;;;8.82;4.32;;;;;;;;;;5036754;28;20029;-50
2022/02/10 19:20:12;;;;;;;7.22;4.30;;;;;;;;;;5031720;28;20035;-50
2022/02/10 19:22:38;;;;;;;5.30;3.42;;;;;;;;;;5031065;28;20025;-49
2022/02/10 19:25:08;;;;;;;7.93;3.97;;;;;;;;;;5038582;28;20033;-48
2022/02/10 19:27:35;;;;;;;4.80;2.97;;;;;;;;;;5034315;28;20036;-51
2022/02/10 19:30:02;;;;;;;5.65;2.97;;;;;;;;;;5035040;28;20036;-50
2022/02/10 19:32:31;;;;;;;5.22;2.80;;;;;;;;;;5034829;28;20036;-50
2022/02/10 19:34:58;;;;;;;5.32;2.85;;;;;;;;;;5033724;28;20108;-49
2022/02/10 19:37:26;;;;;;;4.80;2.67;;;;;;;;;;5047944;28;20078;-49
2022/02/10 19:40:01;;;;;;;5.45;2.75;;;;;;;;;;5045630;28;20059;-48
2022/02/10 19:42:33;;;;;;;5.60;3.13;;;;;;;;;;5038574;28;20029;-51
2022/02/10 19:45:00;;;;;;;5.32;2.83;;;;;;;;;;5024535;28;20029;-47
2022/02/10 19:47:27;;;;;;;4.25;2.55;;;;;;;;;;5026664;28;20040;-52
2022/02/10 19:49:53;;;;;;;5.43;2.65;;;;;;;;;;5044881;28;20032;-51
2022/02/10 19:52:20;;;;;;;6.88;3.35;;;;;;;;;;5044364;28;20021;-48
2022/02/10 19:54:50;;;;;;;7.28;3.90;;;;;;;;;;5044634;28;20036;-49
2022/02/10 19:57:18;;;;;;;5.82;3.50;;;;;;;;;;5043316;28;20032;-49
2022/02/10 19:59:44;;;;;;;5.78;2.88;;;;;;;;;;5044732;28;20119;-49
2022/02/10 20:02:11;;;;;;;7.00;3.55;;;;;;;;;;5044757;28;20075;-51
2022/02/10 20:04:37;;;;;;;6.47;3.25;;;;;;;;;;5044141;28;20044;-50
2022/02/10 20:07:04;;;;;;;8.27;3.80;;;;;;;;;;5044306;28;20029;-49
2022/02/10 20:09:30;;;;;;;10.63;3.92;;;;;;;;;;5044225;28;20622;-51
2022/02/10 20:11:56;;;;;;;5.45;3.08;;;;;;;;;;5042764;28;20044;-51
2022/02/10 20:14:23;;;;;;;5.18;3.00;;;;;;;;;;5043936;28;20036;-49
2022/02/10 20:16:49;;;;;;;6.45;3.13;;;;;;;;;;5044455;28;20100;-48
2022/02/10 20:19:15;;;;;;;6.22;2.97;;;;;;;;;;5044199;28;20061;-48
2022/02/10 20:21:41;;;;;;;12.30;4.38;;;;;;;;;;5044096;28;20056;-50
2022/02/10 20:24:07;;;;;;;8.50;3.83;;;;;;;;;;5044346;28;20114;-49
2022/02/10 20:26:33;;;;;;;6.45;3.03;;;;;;;;;;5043810;28;20408;-47
2022/02/10 20:28:59;;;;;;;5.38;2.88;;;;;;;;;;5044265;28;20033;-50
2022/02/10 20:31:28;;;;;;;7.65;3.33;;;;;;;;;;5046077;28;20063;-49
2022/02/10 20:33:54;;;;;;;8.05;3.30;;;;;;;;;;5064202;28;20086;-49
2022/02/10 20:36:20;;;;;;;5.88;2.75;;;;;;;;;;5054168;28;20803;-47
2022/02/10 20:38:49;;;;;;;4.72;2.42;;;;;;;;;;5043862;28;20033;-48
2022/02/10 20:41:17;;;;;;;6.53;2.95;;;;;;;;;;5042587;28;20029;-48
2022/02/10 20:43:45;;;;;;;5.68;2.75;;;;;;;;;;5031808;28;20401;-47
2022/02/10 20:46:14;;;;;;;3.25;2.00;;;;;;;;;;5044902;28;20032;-47
2022/02/10 20:48:41;;;;;;;3.38;2.25;;;;;;;;;;5052797;28;20028;-50
2022/02/10 20:51:09;;;;;;;4.15;2.55;;;;;;;;;;5048285;28;20021;-50
2022/02/10 20:53:37;;;;;;;5.35;2.60;;;;;;;;;;5045913;28;20029;-47
2022/02/10 20:56:05;;;;;;;8.95;3.35;;;;;;;;;;5046825;28;20033;-51
2022/02/10 20:58:32;;;;;;;8.80;3.53;;;;;;;;;;5032351;28;20091;-49
2022/02/10 21:01:00;;;;;;;7.18;3.13;;;;;;;;;;5033066;28;20033;-52
2022/02/10 21:03:29;;;;;;;5.35;2.78;;;;;;;;;;5038498;28;20083;-48
2022/02/10 21:10:56;;;;;;;6.05;2.70;;;;;;;;;;5036905;28;20080;-48
2022/02/10 21:13:24;;;;;;;8.52;2.92;;;;;;;;;;5047056;28;20028;-50
2022/02/10 21:15:50;;;;;;;5.15;2.70;;;;;;;;;;5040402;28;20021;-50
2022/02/10 21:18:18;;;;;;;9.15;3.08;;;;;;;;;;5035775;28;20256;-49
2022/02/10 21:20:45;;;;;;;6.25;2.70;;;;;;;;;;5035494;28;20021;-49
2022/02/10 21:23:30;;;;;;;6.70;2.85;;;;;;;;;;5031858;28;20988;-48
2022/02/10 21:25:57;;;;;;;7.20;2.75;;;;;;;;;;5032042;28;20428;-49
2022/02/10 21:28:30;;;;;;;6.63;3.40;;;;;;;;;;5039290;28;20036;-50
2022/02/10 21:31:01;;;;;;;6.35;3.00;;;;;;;;;;5035439;28;20036;-47
2022/02/10 21:33:45;;;;;;;6.25;2.65;;;;;;;;;;5031866;28;20033;-49
2022/02/10 21:39:03;;;;;;;6.18;3.15;;;;;;;;;;5031093;28;20489;-48
2022/02/10 22:11:56;;;;;;;7.93;3.22;;;;;;;;;;5032938;28;20074;-49
2022/02/10 22:17:28;;;;;;;5.68;2.78;;;;;;;;;;5040329;28;20137;-49
2022/02/10 22:19:59;;;;;;;5.95;2.97;;;;;;;;;;5036266;28;20037;-50
2022/02/10 22:22:35;;;;;;;8.25;2.88;;;;;;;;;;5029492;28;20025;-51
2022/02/10 22:25:06;;;;;;;7.43;3.10;;;;;;;;;;5036305;28;20064;-48
2022/02/10 22:27:36;;;;;;;10.48;3.40;;;;;;;;;;5031786;28;20047;-50
2022/02/10 22:30:10;;;;;;;8.48;3.55;;;;;;;;;;5026224;28;20018;-48
2022/02/10 22:32:53;;;;;;;7.70;3.53;;;;;;;;;;5038008;28;20032;-51
2022/02/10 22:35:19;;;;;;;8.95;3.33;;;;;;;;;;5030962;28;20017;-47
2022/02/10 22:37:48;;;;;;;9.57;3.72;;;;;;;;;;5042688;28;20037;-49
2022/02/10 22:40:38;;;;;;;6.25;3.28;;;;;;;;;;5038153;28;20036;-49
2022/02/10 22:43:01;;;;;;;7.10;3.47;;;;;;;;;;5039298;28;20124;-51
2022/02/10 22:45:28;;;;;;;9.90;3.42;;;;;;;;;;5045188;28;20032;-50
2022/02/10 22:47:54;;;;;;;6.72;3.20;;;;;;;;;;5045322;28;20029;-47
2022/02/10 22:50:20;;;;;;;6.88;3.08;;;;;;;;;;5045867;28;20024;-50
2022/02/10 22:52:47;;;;;;;8.07;3.05;;;;;;;;;;5045658;28;20036;-50
2022/02/10 22:55:13;;;;;;;9.65;3.20;;;;;;;;;;5045182;28;20067;-48
2022/02/10 22:57:39;;;;;;;7.65;3.28;;;;;;;;;;5043991;28;20029;-51
2022/02/10 23:00:08;;;;;;;7.28;3.47;;;;;;;;;;5045323;28;20341;-50
2022/02/10 23:02:34;;;;;;;3.65;2.47;;;;;;;;;;5045201;28;20392;-49
2022/02/10 23:05:00;;;;;;;5.72;2.20;;;;;;;;;;5057509;28;20571;-50
2022/02/10 23:07:26;;;;;;;4.53;2.30;;;;;;;;;;5044980;28;20029;-50
2022/02/10 23:10:02;;;;;;;3.85;2.20;;;;;;;;;;5044520;28;20032;-49
2022/02/10 23:12:29;;;;;;;4.10;1.95;;;;;;;;;;5043060;28;20052;-51
2022/02/10 23:14:56;;;;;;;4.53;2.72;;;;;;;;;;5043850;28;20500;-47
2022/02/10 23:17:22;;;;;;;3.83;2.25;;;;;;;;;;5044935;28;20123;-49
2022/02/10 23:19:48;;;;;;;4.78;2.42;;;;;;;;;;5044042;28;20025;-49
2022/02/10 23:22:14;;;;;;;5.38;2.70;;;;;;;;;;5042443;28;20458;-46
2022/02/10 23:24:41;;;;;;;4.43;2.80;;;;;;;;;;5044850;28;20086;-50
2022/02/10 23:27:07;;;;;;;5.97;3.15;;;;;;;;;;5027242;28;20089;-47
2022/02/10 23:29:34;;;;;;;6.40;3.58;;;;;;;;;;5025407;28;20025;-51
2022/02/10 23:32:02;;;;;;;5.57;3.38;;;;;;;;;;5025516;28;20100;-48
2022/02/10 23:34:29;;;;;;;5.72;3.15;;;;;;;;;;5024325;28;20457;-51
2022/02/10 23:36:56;;;;;;;4.40;2.50;;;;;;;;;;5038620;28;20068;-46
2022/02/10 23:44:25;;;;;;;5.05;3.00;;;;;;;;;;5044504;28;20112;-50
2022/02/10 23:46:51;;;;;;;7.45;3.90;;;;;;;;;;5044890;28;20027;-50
2022/02/10 23:49:20;;;;;;;6.10;3.60;;;;;;;;;;5044179;28;20024;-50
2022/02/10 23:51:52;;;;;;;5.30;3.08;;;;;;;;;;5044885;28;20025;-50
2022/02/10 23:54:18;;;;;;;6.25;2.90;;;;;;;;;;5044066;28;20025;-47
2022/02/10 23:56:51;;;;;;;4.85;2.60;;;;;;;;;;5044310;28;20039;-51
2022/02/10 23:59:36;;;;;;;7.03;2.75;;;;;;;;;;5043959;28;20051;-51
